• Join FlightAware (Why Join?)
  • Login
  • US Flag 
07:18AM EDT


 

Airport Tracker/Info


-or-


 

Live Flight TrackerFlight Track Log ✈ SWA796 ✈ 14-Dec-2013 ✈ KBWI - KORF

Flight Track Log - Related Links

Times and Time Zones

All times are in EST time to prevent confusion due to time zone crossing. See the SWA796 flight status page for this flight to view local times or setup timezone preferences in your user account.

Time Position Orientation Groundspeed Altitude Reporting Facility
EST Latitude Longitude Course Direction KTS MPH feet Rate Location/Type
08:24AM 39.1333 -76.6333 131° Southeast 174 200 2,900  Level Potomac TRACON
08:25AM 39.1000 -76.5833 131° Southeast 234 269 6,200 3,420 Climbing Potomac TRACON
08:25AM 39.0500 -76.5500 153° Southeast 272 313 8,800 4,020 Climbing Potomac TRACON
08:26AM 38.9833 -76.5167 159° South 299 344 12,700 1,560 Climbing Potomac TRACON
08:29AM 38.8008 -76.5853 196° South 314 361 14,000 360 Climbing Washington Center
08:30AM 38.7256 -76.6294 205° Southwest 309 356 14,000  Level Washington Center
08:31AM 38.6478 -76.6736 204° Southwest 309 356 14,000  Level Washington Center
08:32AM 38.5725 -76.7203 206° Southwest 309 356 14,000  Level Washington Center
08:33AM 38.4744 -76.7214 181° South 301 346 14,000  Level Washington Center
08:34AM 38.3892 -76.7069 172° South 306 352 14,000  Level Washington Center
08:35AM 38.3058 -76.6925 172° South 306 352 14,000  Level Washington Center
08:36AM 38.2308 -76.6808 173° South 306 352 14,000  Level Washington Center
08:37AM 38.1433 -76.6717 175° South 312 359 14,000  Level Washington Center
08:38AM 38.0578 -76.6678 178° South 312 359 14,000  Level Washington Center
08:39AM 37.9703 -76.6717 182° South 312 359 14,000  Level Washington Center
08:40AM 37.8847 -76.6811 185° South 312 359 14,000  Level Washington Center
08:41AM 37.8058 -76.6300 153° Southeast 299 344 14,000 -420 Level Washington Center
08:41AM 37.7728 -76.5847 133° Southeast 348 400 13,400 -1,020 Descending Washington Center
08:42AM 37.7439 -76.5397 129° Southeast 307 353 13,000 -900 Descending Washington Center
08:42AM 37.7150 -76.5053 137° Southeast 340 391 12,600 -1,020 Descending Washington Center
08:43AM 37.6800 -76.4497 129° Southeast 325 374 12,000 -1,020 Descending Washington Center
08:43AM 37.6531 -76.4156 135° Southeast 337 388 11,600 -1,140 Descending Washington Center
08:44AM 37.6181 -76.3653 131° Southeast 331 381 10,900 -1,380 Descending Washington Center
08:44AM 37.5889 -76.3386 144° Southeast 317 365 10,200 -1,200 Descending Washington Center
08:45AM 37.5475 -76.3094 151° Southeast 317 365 9,700 -1,140 Descending Washington Center
08:45AM 37.5100 -76.2961 164° South 277 319 9,100 -1,140 Descending Washington Center
08:46AM 37.4747 -76.2747 154° Southeast 289 333 8,600 -1,080 Descending Washington Center
08:46AM 37.4331 -76.2536 158° South 263 303 7,800 -1,200 Descending Washington Center
08:47AM 37.4103 -76.2403 155° Southeast 270 311 7,400 -1,140 Descending Washington Center
08:47AM 37.3664 -76.2217 161° South 254 292 6,700 -900 Descending Washington Center
08:48AM 37.3436 -76.2058 151° Southeast 265 305 6,500 -1,020 Descending Washington Center
08:48AM 37.2875 -76.1792 159° South 261 300 5,600 -1,020 Descending Washington Center
08:49AM 37.2769 -76.1714 150° Southeast 260 299 5,500 -1,140 Descending Washington Center
08:50AM 37.2125 -76.1394 158° South 260 299 4,200 -1,440 Descending Washington Center
08:50AM 37.1481 -76.1078 159° South 248 285 2,900 -1,380 Descending Washington Center
08:51AM 37.1481 -76.1053 90° East 249 287 2,900 -900 Level Washington Center
08:51AM 37.0856 -76.0761 160° South 242 278 2,000 -540 Descending Washington Center
08:52AM 37.0311 -76.0967 197° South 235 270 2,000 -240 Level Washington Center
08:53AM 36.9747 -76.1300 205° Southwest 173 199 1,600 -600 Descending Washington Center
08:55AM 36.9328 -76.1661 215° Southwest 145 167 800 -780 Descending Washington Center